Hovedside
METAR-TAF:

METAR-TAF

Lufthavner :

Skellefteå, Sverige

Skellefteå lufthavn

breddegrad: 64-38N, lengdegrad: 021-05E, høyde over havet: 49 m

Gjeldene værobservasjon

Denne rapporten ble laget for 1 time og 13 minutter siden, klokken 09:50 UTC
Vind 7 kt fra Nord-nordvest, skiftende mellom Nordvest og Nord
Temperatur 2°C
Luftfuktighet 60%
Trykk 1005 hPa
Sikt 10 km eller mer
Få skyer i en høyde av 2500 ft
Brutte skyer i en høyde av 3000 ft

METAR: ESNS 270950Z 34007KT 310V010 9999 FEW025 BKN030 02/M05 Q1005

Tid: 13:03 (11:03 UTC)

Varsel

Denne rapporten ble laget for 2 timer og 33 minutter siden, klokken 08:30 UTC
Varsel gyldig fra 27. klokken 09 UTC til 27. klokken 18 UTC
Vind 8 kt fra Nord-nordvest
Sikt 10 km eller mer
Brutte skyer i en høyde av 3000 ft
lett snø

TAF: ESNS 270830Z 2709/2718 34008KT 9999 -SN BKN030

Værobservasjoner og værvarsel for over 4000 flyplasser (METAR- og TAF-rapporter).

Tilgjengelige stasjoner er representert av de røde og gule prikkene på kartet.

Hold musepekeren over prikken for å se navnet på stasjonen.

Klikk så for å se værobservasjoner og -varsler.

For å forandre kartet kan du klikke på den grønne knappen med svart kryss for å zoome inn, på den grønne knappen med strek for å zoome ut, eller på de grønne pilene for å se tilstøtende kart.


METAR-TAF: